sensor_id;sensor_type;location;lat;lon;timestamp;pressure;altitude;pressure_sealevel;temperature;humidity
46722;BME280;32455;43.430;23.136;2023-05-01T00:02:12;98098.63;;;11.70;97.47
46722;BME280;32455;43.430;23.136;2023-05-01T00:04:57;98113.59;;;11.77;97.62
46722;BME280;32455;43.430;23.136;2023-05-01T00:07:42;98087.63;;;11.71;97.08
46722;BME280;32455;43.430;23.136;2023-05-01T00:10:28;98084.47;;;11.74;96.16
46722;BME280;32455;43.430;23.136;2023-05-01T00:13:13;98094.41;;;11.62;97.48
46722;BME280;32455;43.430;23.136;2023-05-01T00:15:59;98100.00;;;11.49;99.45
46722;BME280;32455;43.430;23.136;2023-05-01T00:18:45;98102.56;;;11.44;100.00
46722;BME280;32455;43.430;23.136;2023-05-01T00:21:30;98096.44;;;11.37;100.00
46722;BME280;32455;43.430;23.136;2023-05-01T00:24:15;98099.94;;;11.37;100.00
46722;BME280;32455;43.430;23.136;2023-05-01T16:47:37;98314.50;;;16.95;67.67
46722;BME280;32455;43.430;23.136;2023-05-01T16:50:22;98305.03;;;16.65;72.36
46722;BME280;32455;43.430;23.136;2023-05-01T16:53:06;98297.59;;;16.50;74.31
46722;BME280;32455;43.430;23.136;2023-05-01T16:55:52;98312.56;;;16.58;72.55
46722;BME280;32455;43.430;23.136;2023-05-01T16:58:37;98330.59;;;16.15;74.99
46722;BME280;32455;43.430;23.136;2023-05-01T17:01:22;98342.09;;;16.82;68.33
46722;BME280;32455;43.430;23.136;2023-05-01T17:04:07;98342.81;;;16.72;68.77
46722;BME280;32455;43.430;23.136;2023-05-01T17:06:52;98324.03;;;16.11;70.97
46722;BME280;32455;43.430;23.136;2023-05-01T17:09:40;98349.28;;;15.90;73.47
46722;BME280;32455;43.430;23.136;2023-05-01T17:12:26;98339.81;;;15.70;74.10
46722;BME280;32455;43.430;23.136;2023-05-01T17:15:12;98341.75;;;15.36;76.27
46722;BME280;32455;43.430;23.136;2023-05-01T17:17:57;98350.69;;;15.37;76.27
46722;BME280;32455;43.430;23.136;2023-05-01T17:20:43;98346.47;;;15.24;76.64
46722;BME280;32455;43.430;23.136;2023-05-01T17:23:28;98339.34;;;15.18;76.82
46722;BME280;32455;43.430;23.136;2023-05-01T17:26:13;98337.78;;;15.05;77.25
46722;BME280;32455;43.430;23.136;2023-05-01T17:28:59;98358.56;;;14.83;78.74
46722;BME280;32455;43.430;23.136;2023-05-01T17:31:46;98349.03;;;14.80;79.73
46722;BME280;32455;43.430;23.136;2023-05-01T17:34:31;98358.16;;;14.91;77.61
46722;BME280;32455;43.430;23.136;2023-05-01T17:37:16;98355.25;;;14.81;77.87
46722;BME280;32455;43.430;23.136;2023-05-01T17:40:01;98370.66;;;14.80;76.71
46722;BME280;32455;43.430;23.136;2023-05-01T17:42:48;98366.06;;;14.81;76.25
46722;BME280;32455;43.430;23.136;2023-05-01T17:45:34;98351.81;;;14.68;77.04
46722;BME280;32455;43.430;23.136;2023-05-01T17:48:19;98377.81;;;14.69;77.25
46722;BME280;32455;43.430;23.136;2023-05-01T17:51:03;98371.66;;;14.74;76.98
46722;BME280;32455;43.430;23.136;2023-05-01T17:53:48;98370.50;;;14.70;75.34
46722;BME280;32455;43.430;23.136;2023-05-01T17:56:33;98362.81;;;14.95;72.99
46722;BME280;32455;43.430;23.136;2023-05-01T17:59:18;98360.50;;;15.21;70.76
46722;BME280;32455;43.430;23.136;2023-05-01T18:02:03;98375.59;;;15.17;72.52
46722;BME280;32455;43.430;23.136;2023-05-01T18:04:47;98369.72;;;14.86;72.64
46722;BME280;32455;43.430;23.136;2023-05-01T18:07:34;98392.16;;;14.70;73.70
46722;BME280;32455;43.430;23.136;2023-05-01T18:10:19;98383.69;;;14.38;75.60
46722;BME280;32455;43.430;23.136;2023-05-01T18:13:04;98389.16;;;14.55;76.86
46722;BME280;32455;43.430;23.136;2023-05-01T18:15:48;98398.34;;;14.53;75.55
46722;BME280;32455;43.430;23.136;2023-05-01T18:18:33;98404.69;;;14.19;77.17
46722;BME280;32455;43.430;23.136;2023-05-01T18:21:18;98387.34;;;14.32;77.02
46722;BME280;32455;43.430;23.136;2023-05-01T18:24:03;98398.13;;;14.43;76.75
46722;BME280;32455;43.430;23.136;2023-05-01T18:26:47;98388.44;;;14.59;76.57
46722;BME280;32455;43.430;23.136;2023-05-01T18:29:33;98406.81;;;15.41;73.99
46722;BME280;32455;43.430;23.136;2023-05-01T18:32:18;98393.72;;;15.16;71.75
46722;BME280;32455;43.430;23.136;2023-05-01T18:35:04;98406.44;;;14.53;77.36
46722;BME280;32455;43.430;23.136;2023-05-01T18:37:49;98406.00;;;14.04;80.55
46722;BME280;32455;43.430;23.136;2023-05-01T18:40:34;98419.19;;;14.01;82.64
46722;BME280;32455;43.430;23.136;2023-05-01T18:43:20;98414.63;;;13.19;90.70
46722;BME280;32455;43.430;23.136;2023-05-01T18:46:05;98423.13;;;12.93;96.89
46722;BME280;32455;43.430;23.136;2023-05-01T18:48:52;98419.34;;;12.70;99.62
46722;BME280;32455;43.430;23.136;2023-05-01T18:51:38;98427.06;;;12.67;100.00
46722;BME280;32455;43.430;23.136;2023-05-01T18:54:23;98422.78;;;12.77;98.77
46722;BME280;32455;43.430;23.136;2023-05-01T18:57:09;98422.34;;;13.04;97.37
46722;BME280;32455;43.430;23.136;2023-05-01T18:59:54;98429.22;;;13.42;93.15
46722;BME280;32455;43.430;23.136;2023-05-01T19:02:40;98439.59;;;13.03;96.11
46722;BME280;32455;43.430;23.136;2023-05-01T19:05:25;98418.59;;;12.93;97.85
46722;BME280;32455;43.430;23.136;2023-05-01T19:08:11;98432.28;;;12.50;100.00
46722;BME280;32455;43.430;23.136;2023-05-01T19:10:56;98438.16;;;12.28;100.00
46722;BME280;32455;43.430;23.136;2023-05-01T19:13:42;98426.44;;;12.05;100.00
46722;BME280;32455;43.430;23.136;2023-05-01T19:16:27;98441.31;;;12.07;100.00
46722;BME280;32455;43.430;23.136;2023-05-01T19:19:13;98455.19;;;12.29;100.00
46722;BME280;32455;43.430;23.136;2023-05-01T19:21:59;98446.81;;;12.00;100.00
46722;BME280;32455;43.430;23.136;2023-05-01T19:24:44;98455.25;;;11.86;100.00
46722;BME280;32455;43.430;23.136;2023-05-01T19:27:30;98464.41;;;12.82;99.62
46722;BME280;32455;43.430;23.136;2023-05-01T19:30:16;98467.97;;;13.71;85.95
46722;BME280;32455;43.430;23.136;2023-05-01T19:33:01;98448.56;;;13.97;79.29
46722;BME280;32455;43.430;23.136;2023-05-01T19:35:47;98461.28;;;14.25;78.98
46722;BME280;32455;43.430;23.136;2023-05-01T19:38:32;98461.59;;;14.41;75.89
46722;BME280;32455;43.430;23.136;2023-05-01T19:41:18;98472.63;;;14.51;74.38
46722;BME280;32455;43.430;23.136;2023-05-01T19:44:03;98473.31;;;14.58;73.17
46722;BME280;32455;43.430;23.136;2023-05-01T19:46:49;98456.66;;;14.49;71.22
46722;BME280;32455;43.430;23.136;2023-05-01T19:49:34;98479.91;;;14.62;70.20
46722;BME280;32455;43.430;23.136;2023-05-01T19:52:19;98475.19;;;14.69;70.63
46722;BME280;32455;43.430;23.136;2023-05-01T19:55:05;98466.63;;;14.61;71.19
46722;BME280;32455;43.430;23.136;2023-05-01T19:57:49;98480.34;;;14.71;72.41
46722;BME280;32455;43.430;23.136;2023-05-01T20:00:35;98466.25;;;14.69;72.17
46722;BME280;32455;43.430;23.136;2023-05-01T20:03:20;98475.34;;;14.51;73.43
46722;BME280;32455;43.430;23.136;2023-05-01T20:06:05;98465.38;;;14.40;73.63
46722;BME280;32455;43.430;23.136;2023-05-01T20:08:51;98458.06;;;14.00;75.91
46722;BME280;32455;43.430;23.136;2023-05-01T20:11:36;98470.38;;;13.96;75.97
46722;BME280;32455;43.430;23.136;2023-05-01T20:14:21;98457.94;;;13.95;76.80
46722;BME280;32455;43.430;23.136;2023-05-01T20:17:06;98452.47;;;13.66;79.65
46722;BME280;32455;43.430;23.136;2023-05-01T20:19:52;98446.56;;;13.93;77.98
46722;BME280;32455;43.430;23.136;2023-05-01T20:22:38;98471.94;;;14.44;73.53
46722;BME280;32455;43.430;23.136;2023-05-01T20:25:23;98462.56;;;14.35;73.85
46722;BME280;32455;43.430;23.136;2023-05-01T20:28:10;98458.91;;;14.52;71.47
46722;BME280;32455;43.430;23.136;2023-05-01T20:30:55;98463.81;;;14.56;70.09
46722;BME280;32455;43.430;23.136;2023-05-01T20:33:41;98462.16;;;14.55;69.89
46722;BME280;32455;43.430;23.136;2023-05-01T20:36:26;98468.31;;;14.78;71.60
46722;BME280;32455;43.430;23.136;2023-05-01T20:39:11;98450.59;;;14.71;67.80
46722;BME280;32455;43.430;23.136;2023-05-01T20:41:57;98450.72;;;14.64;69.40
46722;BME280;32455;43.430;23.136;2023-05-01T20:44:42;98460.78;;;14.97;67.27
46722;BME280;32455;43.430;23.136;2023-05-01T20:47:28;98461.50;;;14.76;68.48
46722;BME280;32455;43.430;23.136;2023-05-01T20:50:15;98439.16;;;14.52;69.79
46722;BME280;32455;43.430;23.136;2023-05-01T20:53:01;98457.88;;;14.70;68.95
46722;BME280;32455;43.430;23.136;2023-05-01T20:55:47;98456.34;;;14.74;68.63
46722;BME280;32455;43.430;23.136;2023-05-01T20:58:34;98471.06;;;14.67;69.42
46722;BME280;32455;43.430;23.136;2023-05-01T21:01:19;98468.94;;;14.69;69.71
46722;BME280;32455;43.430;23.136;2023-05-01T21:04:04;98468.00;;;14.63;70.22
46722;BME280;32455;43.430;23.136;2023-05-01T21:06:50;98475.91;;;14.65;69.84
46722;BME280;32455;43.430;23.136;2023-05-01T21:09:36;98471.44;;;14.47;71.41
46722;BME280;32455;43.430;23.136;2023-05-01T21:12:21;98459.28;;;14.33;71.33
46722;BME280;32455;43.430;23.136;2023-05-01T21:15:07;98475.78;;;14.08;74.74
46722;BME280;32455;43.430;23.136;2023-05-01T21:17:53;98459.25;;;13.92;76.40
46722;BME280;32455;43.430;23.136;2023-05-01T21:20:38;98448.94;;;13.66;77.82
46722;BME280;32455;43.430;23.136;2023-05-01T21:23:25;98466.19;;;13.41;81.40
46722;BME280;32455;43.430;23.136;2023-05-01T21:26:12;98463.56;;;13.23;82.32
46722;BME280;32455;43.430;23.136;2023-05-01T21:28:57;98452.22;;;12.91;83.38
46722;BME280;32455;43.430;23.136;2023-05-01T21:31:42;98459.91;;;13.17;82.30
46722;BME280;32455;43.430;23.136;2023-05-01T21:34:28;98448.97;;;13.00;82.81
46722;BME280;32455;43.430;23.136;2023-05-01T21:37:12;98465.13;;;13.31;81.75
46722;BME280;32455;43.430;23.136;2023-05-01T21:40:04;98420.06;;;12.77;83.10
46722;BME280;32455;43.430;23.136;2023-05-01T21:42:49;98460.94;;;13.04;82.74
46722;BME280;32455;43.430;23.136;2023-05-01T21:45:38;98474.63;;;12.91;84.16
46722;BME280;32455;43.430;23.136;2023-05-01T21:48:27;98470.94;;;12.74;85.29
46722;BME280;32455;43.430;23.136;2023-05-01T21:51:16;98450.81;;;12.46;87.13
46722;BME280;32455;43.430;23.136;2023-05-01T21:54:03;98456.09;;;12.53;87.98
46722;BME280;32455;43.430;23.136;2023-05-01T21:56:48;98468.28;;;12.25;92.75
46722;BME280;32455;43.430;23.136;2023-05-01T21:59:37;98457.44;;;11.95;94.92
46722;BME280;32455;43.430;23.136;2023-05-01T22:02:28;98432.31;;;11.58;96.00
46722;BME280;32455;43.430;23.136;2023-05-01T22:05:15;98478.06;;;11.83;96.79
46722;BME280;32455;43.430;23.136;2023-05-01T22:08:01;98463.75;;;11.39;100.00
46722;BME280;32455;43.430;23.136;2023-05-01T22:10:47;98471.22;;;11.12;100.00
46722;BME280;32455;43.430;23.136;2023-05-01T22:13:32;98482.69;;;11.51;100.00
46722;BME280;32455;43.430;23.136;2023-05-01T22:16:18;98462.28;;;11.87;100.00
46722;BME280;32455;43.430;23.136;2023-05-01T22:19:03;98473.94;;;11.99;97.95
46722;BME280;32455;43.430;23.136;2023-05-01T22:21:49;98476.13;;;10.90;100.00
46722;BME280;32455;43.430;23.136;2023-05-01T22:24:34;98476.53;;;10.62;100.00
46722;BME280;32455;43.430;23.136;2023-05-01T22:27:19;98487.84;;;11.02;100.00
46722;BME280;32455;43.430;23.136;2023-05-01T22:30:06;98472.06;;;10.81;100.00
46722;BME280;32455;43.430;23.136;2023-05-01T22:32:51;98457.47;;;10.25;100.00
46722;BME280;32455;43.430;23.136;2023-05-01T22:35:37;98467.84;;;10.60;100.00
46722;BME280;32455;43.430;23.136;2023-05-01T22:38:22;98447.00;;;10.49;100.00
46722;BME280;32455;43.430;23.136;2023-05-01T22:41:07;98453.59;;;10.60;100.00
46722;BME280;32455;43.430;23.136;2023-05-01T22:43:53;98451.78;;;10.53;100.00
46722;BME280;32455;43.430;23.136;2023-05-01T22:46:40;98460.09;;;10.77;100.00
46722;BME280;32455;43.430;23.136;2023-05-01T22:49:27;98457.50;;;10.57;100.00
46722;BME280;32455;43.430;23.136;2023-05-01T22:52:12;98461.06;;;10.51;100.00
46722;BME280;32455;43.430;23.136;2023-05-01T22:54:57;98453.44;;;10.48;100.00
46722;BME280;32455;43.430;23.136;2023-05-01T22:57:42;98452.34;;;10.62;100.00
46722;BME280;32455;43.430;23.136;2023-05-01T23:00:27;98441.06;;;10.40;100.00
46722;BME280;32455;43.430;23.136;2023-05-01T23:03:13;98469.25;;;10.18;100.00
46722;BME280;32455;43.430;23.136;2023-05-01T23:05:59;98451.03;;;10.33;100.00
46722;BME280;32455;43.430;23.136;2023-05-01T23:08:45;98449.78;;;10.36;100.00
46722;BME280;32455;43.430;23.136;2023-05-01T23:11:31;98464.47;;;10.33;100.00
46722;BME280;32455;43.430;23.136;2023-05-01T23:14:17;98462.53;;;9.89;100.00
46722;BME280;32455;43.430;23.136;2023-05-01T23:17:02;98450.13;;;9.94;100.00
46722;BME280;32455;43.430;23.136;2023-05-01T23:19:49;98455.41;;;10.14;100.00
46722;BME280;32455;43.430;23.136;2023-05-01T23:22:35;98456.09;;;10.03;100.00
46722;BME280;32455;43.430;23.136;2023-05-01T23:25:25;98465.44;;;9.94;100.00
46722;BME280;32455;43.430;23.136;2023-05-01T23:28:11;98443.97;;;9.87;100.00
46722;BME280;32455;43.430;23.136;2023-05-01T23:30:59;98466.66;;;9.98;100.00
46722;BME280;32455;43.430;23.136;2023-05-01T23:33:45;98434.03;;;9.94;100.00
46722;BME280;32455;43.430;23.136;2023-05-01T23:36:30;98442.81;;;9.57;100.00
46722;BME280;32455;43.430;23.136;2023-05-01T23:39:15;98442.22;;;9.35;100.00
46722;BME280;32455;43.430;23.136;2023-05-01T23:42:00;98444.44;;;9.64;100.00
46722;BME280;32455;43.430;23.136;2023-05-01T23:44:45;98443.44;;;9.52;100.00
46722;BME280;32455;43.430;23.136;2023-05-01T23:47:30;98447.13;;;9.58;100.00
46722;BME280;32455;43.430;23.136;2023-05-01T23:50:16;98436.81;;;9.41;100.00
46722;BME280;32455;43.430;23.136;2023-05-01T23:53:05;98425.31;;;9.08;100.00
46722;BME280;32455;43.430;23.136;2023-05-01T23:55:53;98438.28;;;9.24;100.00
46722;BME280;32455;43.430;23.136;2023-05-01T23:58:38;98437.47;;;9.30;100.00
